sensor_id;sensor_type;location;lat;lon;timestamp;P1;durP1;ratioP1;P2;durP2;ratioP2
70247;SDS011;57641;51.416;5.506;2023-04-24T00:00:55;16.92;;;8.77;;
70247;SDS011;57641;51.416;5.506;2023-04-24T00:03:24;14.95;;;8.63;;
70247;SDS011;57641;51.416;5.506;2023-04-24T00:05:51;16.55;;;8.98;;
70247;SDS011;57641;51.416;5.506;2023-04-24T00:08:17;14.85;;;8.50;;
70247;SDS011;57641;51.416;5.506;2023-04-24T00:10:43;18.73;;;9.43;;
70247;SDS011;57641;51.416;5.506;2023-04-24T00:13:08;18.08;;;8.48;;
70247;SDS011;57641;51.416;5.506;2023-04-24T00:15:34;16.67;;;9.48;;
70247;SDS011;57641;51.416;5.506;2023-04-24T00:17:59;14.55;;;8.77;;
70247;SDS011;57641;51.416;5.506;2023-04-24T00:20:26;20.50;;;9.93;;
70247;SDS011;57641;51.416;5.506;2023-04-24T00:22:54;16.10;;;8.25;;
70247;SDS011;57641;51.416;5.506;2023-04-24T00:25:20;17.85;;;8.95;;
70247;SDS011;57641;51.416;5.506;2023-04-24T00:27:46;17.08;;;8.65;;
70247;SDS011;57641;51.416;5.506;2023-04-24T00:30:11;19.80;;;8.48;;
70247;SDS011;57641;51.416;5.506;2023-04-24T00:32:37;16.20;;;9.82;;
70247;SDS011;57641;51.416;5.506;2023-04-24T00:35:03;15.55;;;9.32;;
70247;SDS011;57641;51.416;5.506;2023-04-24T00:37:31;17.25;;;9.45;;
70247;SDS011;57641;51.416;5.506;2023-04-24T00:39:56;16.77;;;9.13;;
70247;SDS011;57641;51.416;5.506;2023-04-24T00:42:22;18.52;;;9.32;;
70247;SDS011;57641;51.416;5.506;2023-04-24T00:44:48;19.10;;;10.43;;
70247;SDS011;57641;51.416;5.506;2023-04-24T00:47:13;20.13;;;9.80;;
70247;SDS011;57641;51.416;5.506;2023-04-24T00:49:39;17.73;;;9.15;;
70247;SDS011;57641;51.416;5.506;2023-04-24T00:52:05;20.17;;;10.73;;
70247;SDS011;57641;51.416;5.506;2023-04-24T00:54:34;20.60;;;10.48;;
70247;SDS011;57641;51.416;5.506;2023-04-24T00:57:00;20.10;;;11.10;;
70247;SDS011;57641;51.416;5.506;2023-04-24T00:59:28;23.55;;;10.60;;
70247;SDS011;57641;51.416;5.506;2023-04-24T01:01:53;16.95;;;10.05;;
70247;SDS011;57641;51.416;5.506;2023-04-24T01:04:20;16.83;;;9.00;;
70247;SDS011;57641;51.416;5.506;2023-04-24T01:06:46;22.80;;;10.75;;
70247;SDS011;57641;51.416;5.506;2023-04-24T01:09:14;23.20;;;10.10;;
70247;SDS011;57641;51.416;5.506;2023-04-24T01:11:41;20.70;;;10.80;;
70247;SDS011;57641;51.416;5.506;2023-04-24T01:14:08;21.20;;;10.85;;
70247;SDS011;57641;51.416;5.506;2023-04-24T01:16:33;23.75;;;11.13;;
70247;SDS011;57641;51.416;5.506;2023-04-24T01:18:59;22.83;;;10.60;;
70247;SDS011;57641;51.416;5.506;2023-04-24T01:21:25;19.80;;;11.05;;
70247;SDS011;57641;51.416;5.506;2023-04-24T01:23:53;19.85;;;11.02;;
70247;SDS011;57641;51.416;5.506;2023-04-24T01:26:19;24.88;;;12.00;;
70247;SDS011;57641;51.416;5.506;2023-04-24T01:28:45;22.27;;;11.23;;
70247;SDS011;57641;51.416;5.506;2023-04-24T01:31:11;24.15;;;11.50;;
70247;SDS011;57641;51.416;5.506;2023-04-24T01:33:37;26.85;;;12.77;;
70247;SDS011;57641;51.416;5.506;2023-04-24T01:36:03;20.08;;;10.90;;
70247;SDS011;57641;51.416;5.506;2023-04-24T01:38:29;29.13;;;12.43;;
70247;SDS011;57641;51.416;5.506;2023-04-24T01:40:54;22.85;;;11.52;;
70247;SDS011;57641;51.416;5.506;2023-04-24T01:43:20;28.50;;;12.90;;
70247;SDS011;57641;51.416;5.506;2023-04-24T01:45:46;25.55;;;12.07;;
70247;SDS011;57641;51.416;5.506;2023-04-24T01:48:12;25.98;;;12.10;;
70247;SDS011;57641;51.416;5.506;2023-04-24T01:50:38;24.55;;;11.65;;
70247;SDS011;57641;51.416;5.506;2023-04-24T01:53:04;24.30;;;13.40;;
70247;SDS011;57641;51.416;5.506;2023-04-24T01:55:30;23.92;;;13.32;;
70247;SDS011;57641;51.416;5.506;2023-04-24T01:57:56;25.65;;;12.80;;
70247;SDS011;57641;51.416;5.506;2023-04-24T02:00:22;25.80;;;14.02;;
70247;SDS011;57641;51.416;5.506;2023-04-24T02:02:49;22.77;;;13.13;;
70247;SDS011;57641;51.416;5.506;2023-04-24T02:05:15;23.50;;;12.88;;
70247;SDS011;57641;51.416;5.506;2023-04-24T02:07:40;24.08;;;12.75;;
70247;SDS011;57641;51.416;5.506;2023-04-24T02:10:06;25.98;;;12.98;;
70247;SDS011;57641;51.416;5.506;2023-04-24T02:12:32;21.77;;;11.35;;
70247;SDS011;57641;51.416;5.506;2023-04-24T02:14:58;28.02;;;13.00;;
70247;SDS011;57641;51.416;5.506;2023-04-24T02:17:23;24.02;;;13.15;;
70247;SDS011;57641;51.416;5.506;2023-04-24T02:19:49;25.23;;;13.43;;
70247;SDS011;57641;51.416;5.506;2023-04-24T02:22:15;24.40;;;12.18;;
70247;SDS011;57641;51.416;5.506;2023-04-24T02:24:41;23.25;;;12.40;;
70247;SDS011;57641;51.416;5.506;2023-04-24T02:27:06;25.90;;;12.68;;
70247;SDS011;57641;51.416;5.506;2023-04-24T02:29:32;27.63;;;12.05;;
70247;SDS011;57641;51.416;5.506;2023-04-24T02:31:58;26.52;;;12.60;;
70247;SDS011;57641;51.416;5.506;2023-04-24T02:34:23;23.08;;;12.68;;
70247;SDS011;57641;51.416;5.506;2023-04-24T02:36:49;24.67;;;12.38;;
70247;SDS011;57641;51.416;5.506;2023-04-24T02:39:14;23.08;;;12.32;;
70247;SDS011;57641;51.416;5.506;2023-04-24T02:41:43;21.23;;;11.43;;
70247;SDS011;57641;51.416;5.506;2023-04-24T02:44:09;23.05;;;11.85;;
70247;SDS011;57641;51.416;5.506;2023-04-24T02:46:35;22.52;;;12.40;;
70247;SDS011;57641;51.416;5.506;2023-04-24T02:49:00;21.23;;;11.27;;
70247;SDS011;57641;51.416;5.506;2023-04-24T02:51:26;20.98;;;12.27;;
70247;SDS011;57641;51.416;5.506;2023-04-24T02:53:52;24.20;;;11.35;;
70247;SDS011;57641;51.416;5.506;2023-04-24T02:56:17;20.65;;;12.27;;
70247;SDS011;57641;51.416;5.506;2023-04-24T02:58:43;19.60;;;10.85;;
70247;SDS011;57641;51.416;5.506;2023-04-24T03:01:08;19.08;;;11.50;;
70247;SDS011;57641;51.416;5.506;2023-04-24T03:03:37;17.70;;;9.95;;
70247;SDS011;57641;51.416;5.506;2023-04-24T03:06:03;18.48;;;9.23;;
70247;SDS011;57641;51.416;5.506;2023-04-24T03:08:31;21.33;;;11.13;;
70247;SDS011;57641;51.416;5.506;2023-04-24T03:10:59;16.98;;;9.80;;
70247;SDS011;57641;51.416;5.506;2023-04-24T03:13:25;22.15;;;10.18;;
70247;SDS011;57641;51.416;5.506;2023-04-24T03:15:51;18.83;;;10.50;;
70247;SDS011;57641;51.416;5.506;2023-04-24T03:18:16;19.63;;;10.80;;
70247;SDS011;57641;51.416;5.506;2023-04-24T03:20:42;18.10;;;9.35;;
70247;SDS011;57641;51.416;5.506;2023-04-24T03:23:07;22.30;;;11.05;;
70247;SDS011;57641;51.416;5.506;2023-04-24T03:25:33;18.27;;;9.65;;
70247;SDS011;57641;51.416;5.506;2023-04-24T03:27:58;19.75;;;11.20;;
70247;SDS011;57641;51.416;5.506;2023-04-24T03:30:24;17.83;;;10.15;;
70247;SDS011;57641;51.416;5.506;2023-04-24T03:32:49;19.48;;;9.90;;
70247;SDS011;57641;51.416;5.506;2023-04-24T03:35:15;16.13;;;9.43;;
70247;SDS011;57641;51.416;5.506;2023-04-24T03:37:40;17.05;;;8.43;;
70247;SDS011;57641;51.416;5.506;2023-04-24T03:40:06;17.08;;;9.43;;
70247;SDS011;57641;51.416;5.506;2023-04-24T03:42:33;16.85;;;9.02;;
70247;SDS011;57641;51.416;5.506;2023-04-24T03:44:58;19.60;;;9.40;;
70247;SDS011;57641;51.416;5.506;2023-04-24T03:47:24;16.98;;;9.77;;
70247;SDS011;57641;51.416;5.506;2023-04-24T03:49:49;15.10;;;9.00;;
70247;SDS011;57641;51.416;5.506;2023-04-24T03:52:15;13.90;;;8.60;;
70247;SDS011;57641;51.416;5.506;2023-04-24T03:54:40;16.30;;;9.27;;
70247;SDS011;57641;51.416;5.506;2023-04-24T03:57:06;17.77;;;9.57;;
70247;SDS011;57641;51.416;5.506;2023-04-24T03:59:31;16.13;;;9.20;;
70247;SDS011;57641;51.416;5.506;2023-04-24T04:01:56;17.08;;;9.48;;
70247;SDS011;57641;51.416;5.506;2023-04-24T04:04:22;19.08;;;9.02;;
70247;SDS011;57641;51.416;5.506;2023-04-24T04:06:47;15.45;;;9.15;;
70247;SDS011;57641;51.416;5.506;2023-04-24T04:09:14;15.38;;;8.90;;
70247;SDS011;57641;51.416;5.506;2023-04-24T04:11:40;15.93;;;8.98;;
70247;SDS011;57641;51.416;5.506;2023-04-24T04:14:05;12.27;;;7.50;;
70247;SDS011;57641;51.416;5.506;2023-04-24T04:16:31;15.05;;;8.65;;
70247;SDS011;57641;51.416;5.506;2023-04-24T04:18:56;17.40;;;8.88;;
70247;SDS011;57641;51.416;5.506;2023-04-24T04:21:22;11.82;;;7.30;;
70247;SDS011;57641;51.416;5.506;2023-04-24T04:23:47;12.60;;;7.82;;
70247;SDS011;57641;51.416;5.506;2023-04-24T04:26:13;15.35;;;7.93;;
70247;SDS011;57641;51.416;5.506;2023-04-24T04:28:39;11.63;;;7.22;;
70247;SDS011;57641;51.416;5.506;2023-04-24T04:31:05;14.98;;;7.97;;
70247;SDS011;57641;51.416;5.506;2023-04-24T04:33:33;12.50;;;6.63;;
70247;SDS011;57641;51.416;5.506;2023-04-24T04:35:59;12.48;;;7.65;;
70247;SDS011;57641;51.416;5.506;2023-04-24T04:38:25;13.23;;;7.35;;
70247;SDS011;57641;51.416;5.506;2023-04-24T04:40:51;12.80;;;7.60;;
70247;SDS011;57641;51.416;5.506;2023-04-24T04:43:17;14.18;;;7.68;;
70247;SDS011;57641;51.416;5.506;2023-04-24T04:45:42;18.27;;;8.57;;
70247;SDS011;57641;51.416;5.506;2023-04-24T04:48:08;13.98;;;7.00;;
70247;SDS011;57641;51.416;5.506;2023-04-24T04:50:37;14.10;;;7.68;;
70247;SDS011;57641;51.416;5.506;2023-04-24T04:53:03;13.00;;;7.50;;
70247;SDS011;57641;51.416;5.506;2023-04-24T04:55:29;13.43;;;7.55;;
70247;SDS011;57641;51.416;5.506;2023-04-24T04:57:55;10.98;;;6.63;;
70247;SDS011;57641;51.416;5.506;2023-04-24T05:00:21;14.35;;;6.57;;
70247;SDS011;57641;51.416;5.506;2023-04-24T05:02:49;10.25;;;6.32;;
70247;SDS011;57641;51.416;5.506;2023-04-24T05:05:14;12.55;;;7.68;;
70247;SDS011;57641;51.416;5.506;2023-04-24T05:07:42;12.05;;;6.38;;
70247;SDS011;57641;51.416;5.506;2023-04-24T05:10:07;9.85;;;6.25;;
70247;SDS011;57641;51.416;5.506;2023-04-24T05:12:33;12.70;;;6.72;;
70247;SDS011;57641;51.416;5.506;2023-04-24T05:14:59;11.18;;;6.00;;
70247;SDS011;57641;51.416;5.506;2023-04-24T05:17:24;9.25;;;5.53;;
70247;SDS011;57641;51.416;5.506;2023-04-24T05:19:51;9.30;;;5.32;;
70247;SDS011;57641;51.416;5.506;2023-04-24T05:22:16;8.63;;;5.28;;
70247;SDS011;57641;51.416;5.506;2023-04-24T05:24:43;7.80;;;4.18;;
70247;SDS011;57641;51.416;5.506;2023-04-24T05:27:10;7.25;;;3.67;;
70247;SDS011;57641;51.416;5.506;2023-04-24T05:33:00;5.28;;;2.90;;
70247;SDS011;57641;51.416;5.506;2023-04-24T05:35:25;4.57;;;2.63;;
70247;SDS011;57641;51.416;5.506;2023-04-24T05:37:50;5.57;;;2.70;;
70247;SDS011;57641;51.416;5.506;2023-04-24T05:40:16;4.32;;;2.67;;
70247;SDS011;57641;51.416;5.506;2023-04-24T05:42:42;3.33;;;2.00;;
70247;SDS011;57641;51.416;5.506;2023-04-24T05:45:07;4.00;;;1.85;;
70247;SDS011;57641;51.416;5.506;2023-04-24T05:47:34;4.97;;;2.00;;
70247;SDS011;57641;51.416;5.506;2023-04-24T05:50:00;2.67;;;1.90;;
70247;SDS011;57641;51.416;5.506;2023-04-24T05:52:25;4.78;;;1.85;;
70247;SDS011;57641;51.416;5.506;2023-04-24T05:54:51;3.22;;;2.00;;
70247;SDS011;57641;51.416;5.506;2023-04-24T05:57:16;4.00;;;2.20;;
70247;SDS011;57641;51.416;5.506;2023-04-24T05:59:41;4.45;;;2.15;;
70247;SDS011;57641;51.416;5.506;2023-04-24T06:02:07;13.07;;;2.60;;
70247;SDS011;57641;51.416;5.506;2023-04-24T06:04:33;3.75;;;1.95;;
70247;SDS011;57641;51.416;5.506;2023-04-24T06:06:59;3.92;;;1.90;;
70247;SDS011;57641;51.416;5.506;2023-04-24T06:09:25;4.82;;;2.20;;
70247;SDS011;57641;51.416;5.506;2023-04-24T06:11:51;5.30;;;1.98;;
70247;SDS011;57641;51.416;5.506;2023-04-24T06:14:19;4.85;;;2.35;;
70247;SDS011;57641;51.416;5.506;2023-04-24T06:16:46;3.65;;;1.92;;
70247;SDS011;57641;51.416;5.506;2023-04-24T06:19:11;5.32;;;2.33;;
70247;SDS011;57641;51.416;5.506;2023-04-24T06:21:37;3.83;;;2.17;;
70247;SDS011;57641;51.416;5.506;2023-04-24T06:24:02;10.35;;;3.47;;
70247;SDS011;57641;51.416;5.506;2023-04-24T06:26:29;6.00;;;2.75;;
70247;SDS011;57641;51.416;5.506;2023-04-24T06:28:55;5.20;;;3.28;;
70247;SDS011;57641;51.416;5.506;2023-04-24T06:31:20;6.38;;;3.55;;
70247;SDS011;57641;51.416;5.506;2023-04-24T06:33:47;7.43;;;4.05;;
70247;SDS011;57641;51.416;5.506;2023-04-24T06:36:13;6.43;;;4.28;;
70247;SDS011;57641;51.416;5.506;2023-04-24T06:38:39;7.50;;;4.50;;
70247;SDS011;57641;51.416;5.506;2023-04-24T06:41:05;9.68;;;4.90;;
70247;SDS011;57641;51.416;5.506;2023-04-24T06:43:30;8.95;;;4.93;;
70247;SDS011;57641;51.416;5.506;2023-04-24T06:45:59;11.38;;;5.43;;
70247;SDS011;57641;51.416;5.506;2023-04-24T06:48:25;8.57;;;5.18;;
70247;SDS011;57641;51.416;5.506;2023-04-24T06:50:51;10.18;;;4.82;;
70247;SDS011;57641;51.416;5.506;2023-04-24T06:53:17;10.98;;;5.00;;
70247;SDS011;57641;51.416;5.506;2023-04-24T06:55:42;13.50;;;6.55;;
70247;SDS011;57641;51.416;5.506;2023-04-24T06:58:10;40.80;;;7.80;;
70247;SDS011;57641;51.416;5.506;2023-04-24T07:00:36;13.90;;;6.93;;
70247;SDS011;57641;51.416;5.506;2023-04-24T07:03:01;13.63;;;7.30;;
70247;SDS011;57641;51.416;5.506;2023-04-24T07:05:27;14.90;;;7.43;;
70247;SDS011;57641;51.416;5.506;2023-04-24T07:07:53;19.08;;;8.70;;
70247;SDS011;57641;51.416;5.506;2023-04-24T07:10:19;14.98;;;8.48;;
70247;SDS011;57641;51.416;5.506;2023-04-24T07:12:45;19.23;;;8.77;;
70247;SDS011;57641;51.416;5.506;2023-04-24T07:15:11;15.82;;;8.55;;
70247;SDS011;57641;51.416;5.506;2023-04-24T07:17:37;21.42;;;8.88;;
70247;SDS011;57641;51.416;5.506;2023-04-24T07:20:04;15.65;;;8.90;;
70247;SDS011;57641;51.416;5.506;2023-04-24T07:22:30;18.23;;;9.25;;
70247;SDS011;57641;51.416;5.506;2023-04-24T07:24:56;18.58;;;8.98;;
70247;SDS011;57641;51.416;5.506;2023-04-24T07:27:21;19.73;;;9.32;;
70247;SDS011;57641;51.416;5.506;2023-04-24T07:29:47;20.33;;;9.38;;
70247;SDS011;57641;51.416;5.506;2023-04-24T07:32:13;15.73;;;8.32;;
70247;SDS011;57641;51.416;5.506;2023-04-24T07:34:38;20.50;;;10.00;;
70247;SDS011;57641;51.416;5.506;2023-04-24T07:37:04;16.88;;;9.27;;
70247;SDS011;57641;51.416;5.506;2023-04-24T07:39:29;15.90;;;9.30;;
70247;SDS011;57641;51.416;5.506;2023-04-24T07:41:55;15.45;;;8.77;;
70247;SDS011;57641;51.416;5.506;2023-04-24T07:44:21;16.15;;;7.30;;
70247;SDS011;57641;51.416;5.506;2023-04-24T07:46:46;13.95;;;7.20;;
70247;SDS011;57641;51.416;5.506;2023-04-24T07:49:12;13.13;;;6.85;;
70247;SDS011;57641;51.416;5.506;2023-04-24T07:51:37;11.88;;;6.03;;
70247;SDS011;57641;51.416;5.506;2023-04-24T07:54:04;17.75;;;6.60;;
70247;SDS011;57641;51.416;5.506;2023-04-24T07:56:33;13.93;;;5.85;;
70247;SDS011;57641;51.416;5.506;2023-04-24T07:59:01;13.48;;;5.47;;
70247;SDS011;57641;51.416;5.506;2023-04-24T08:01:26;11.77;;;5.55;;
70247;SDS011;57641;51.416;5.506;2023-04-24T08:03:52;11.18;;;5.25;;
70247;SDS011;57641;51.416;5.506;2023-04-24T08:06:17;12.07;;;5.57;;
70247;SDS011;57641;51.416;5.506;2023-04-24T08:08:43;13.40;;;5.70;;
70247;SDS011;57641;51.416;5.506;2023-04-24T08:11:08;16.40;;;6.43;;
70247;SDS011;57641;51.416;5.506;2023-04-24T08:13:34;20.15;;;6.63;;
70247;SDS011;57641;51.416;5.506;2023-04-24T08:15:59;18.92;;;6.35;;
70247;SDS011;57641;51.416;5.506;2023-04-24T08:18:25;16.83;;;6.95;;
70247;SDS011;57641;51.416;5.506;2023-04-24T08:20:51;16.23;;;7.15;;
70247;SDS011;57641;51.416;5.506;2023-04-24T08:23:16;14.73;;;6.57;;
70247;SDS011;57641;51.416;5.506;2023-04-24T08:25:42;16.58;;;6.47;;
70247;SDS011;57641;51.416;5.506;2023-04-24T08:28:08;15.45;;;6.38;;
70247;SDS011;57641;51.416;5.506;2023-04-24T08:30:35;16.05;;;6.10;;
70247;SDS011;57641;51.416;5.506;2023-04-24T08:33:01;15.25;;;6.47;;
70247;SDS011;57641;51.416;5.506;2023-04-24T08:35:27;14.05;;;5.50;;
70247;SDS011;57641;51.416;5.506;2023-04-24T08:37:53;16.75;;;5.95;;
70247;SDS011;57641;51.416;5.506;2023-04-24T08:40:18;15.95;;;5.90;;
70247;SDS011;57641;51.416;5.506;2023-04-24T08:42:53;15.00;;;5.25;;
70247;SDS011;57641;51.416;5.506;2023-04-24T08:45:20;15.98;;;5.82;;
70247;SDS011;57641;51.416;5.506;2023-04-24T08:47:46;15.85;;;5.13;;
70247;SDS011;57641;51.416;5.506;2023-04-24T08:50:12;14.27;;;5.05;;
70247;SDS011;57641;51.416;5.506;2023-04-24T08:52:38;16.73;;;4.75;;
70247;SDS011;57641;51.416;5.506;2023-04-24T08:55:04;10.43;;;4.28;;
70247;SDS011;57641;51.416;5.506;2023-04-24T08:57:30;15.10;;;4.20;;
70247;SDS011;57641;51.416;5.506;2023-04-24T08:59:57;13.13;;;3.95;;
70247;SDS011;57641;51.416;5.506;2023-04-24T09:02:23;15.77;;;4.95;;
70247;SDS011;57641;51.416;5.506;2023-04-24T09:04:49;8.95;;;4.22;;
70247;SDS011;57641;51.416;5.506;2023-04-24T09:07:16;8.13;;;4.20;;
70247;SDS011;57641;51.416;5.506;2023-04-24T09:09:43;15.27;;;4.38;;
70247;SDS011;57641;51.416;5.506;2023-04-24T09:12:09;13.10;;;4.47;;
70247;SDS011;57641;51.416;5.506;2023-04-24T09:14:35;12.80;;;4.13;;
70247;SDS011;57641;51.416;5.506;2023-04-24T09:17:05;10.02;;;3.53;;
70247;SDS011;57641;51.416;5.506;2023-04-24T09:19:31;9.85;;;2.83;;
70247;SDS011;57641;51.416;5.506;2023-04-24T09:21:57;8.02;;;2.80;;
70247;SDS011;57641;51.416;5.506;2023-04-24T09:24:23;8.50;;;2.70;;
70247;SDS011;57641;51.416;5.506;2023-04-24T09:26:49;7.97;;;2.53;;
70247;SDS011;57641;51.416;5.506;2023-04-24T09:29:22;8.82;;;3.20;;
70247;SDS011;57641;51.416;5.506;2023-04-24T09:31:48;11.55;;;3.40;;
70247;SDS011;57641;51.416;5.506;2023-04-24T09:34:13;5.90;;;2.63;;
70247;SDS011;57641;51.416;5.506;2023-04-24T09:36:40;8.40;;;2.75;;
70247;SDS011;57641;51.416;5.506;2023-04-24T09:39:12;9.15;;;3.10;;
70247;SDS011;57641;51.416;5.506;2023-04-24T09:44:23;16.90;;;3.00;;
70247;SDS011;57641;51.416;5.506;2023-04-24T09:46:51;6.68;;;2.92;;
70247;SDS011;57641;51.416;5.506;2023-04-24T09:49:25;10.73;;;3.28;;
70247;SDS011;57641;51.416;5.506;2023-04-24T09:52:04;9.93;;;3.05;;
70247;SDS011;57641;51.416;5.506;2023-04-24T09:56:56;9.87;;;3.07;;
70247;SDS011;57641;51.416;5.506;2023-04-24T09:59:22;13.73;;;2.75;;
70247;SDS011;57641;51.416;5.506;2023-04-24T10:01:48;7.63;;;2.60;;
70247;SDS011;57641;51.416;5.506;2023-04-24T10:04:15;6.05;;;2.97;;
70247;SDS011;57641;51.416;5.506;2023-04-24T10:06:44;9.73;;;2.78;;
70247;SDS011;57641;51.416;5.506;2023-04-24T10:09:10;9.35;;;2.63;;
70247;SDS011;57641;51.416;5.506;2023-04-24T10:11:37;7.15;;;2.13;;
70247;SDS011;57641;51.416;5.506;2023-04-24T10:14:09;9.45;;;2.03;;
70247;SDS011;57641;51.416;5.506;2023-04-24T10:16:37;6.82;;;2.30;;
70247;SDS011;57641;51.416;5.506;2023-04-24T10:19:04;5.88;;;1.77;;
70247;SDS011;57641;51.416;5.506;2023-04-24T10:21:30;7.70;;;1.92;;
70247;SDS011;57641;51.416;5.506;2023-04-24T10:23:57;4.82;;;1.73;;
70247;SDS011;57641;51.416;5.506;2023-04-24T10:26:25;5.97;;;2.05;;
70247;SDS011;57641;51.416;5.506;2023-04-24T10:28:52;6.15;;;1.95;;
70247;SDS011;57641;51.416;5.506;2023-04-24T10:31:19;7.28;;;1.67;;
70247;SDS011;57641;51.416;5.506;2023-04-24T10:33:46;7.93;;;3.17;;
70247;SDS011;57641;51.416;5.506;2023-04-24T10:36:12;8.30;;;1.98;;
70247;SDS011;57641;51.416;5.506;2023-04-24T10:38:40;6.88;;;2.15;;
70247;SDS011;57641;51.416;5.506;2023-04-24T10:41:09;5.03;;;1.92;;
70247;SDS011;57641;51.416;5.506;2023-04-24T10:43:39;5.32;;;1.67;;
70247;SDS011;57641;51.416;5.506;2023-04-24T10:46:06;3.80;;;1.85;;
70247;SDS011;57641;51.416;5.506;2023-04-24T10:48:35;9.15;;;2.10;;
70247;SDS011;57641;51.416;5.506;2023-04-24T10:51:10;6.28;;;1.65;;
70247;SDS011;57641;51.416;5.506;2023-04-24T10:53:37;8.02;;;1.60;;
70247;SDS011;57641;51.416;5.506;2023-04-24T10:56:03;4.78;;;1.55;;
70247;SDS011;57641;51.416;5.506;2023-04-24T11:01:03;5.05;;;1.35;;
70247;SDS011;57641;51.416;5.506;2023-04-24T11:03:30;3.17;;;1.27;;
70247;SDS011;57641;51.416;5.506;2023-04-24T11:05:58;3.72;;;1.40;;
70247;SDS011;57641;51.416;5.506;2023-04-24T11:08:30;2.08;;;0.85;;
70247;SDS011;57641;51.416;5.506;2023-04-24T11:10:58;4.88;;;1.55;;
70247;SDS011;57641;51.416;5.506;2023-04-24T11:13:26;4.80;;;1.27;;
70247;SDS011;57641;51.416;5.506;2023-04-24T11:22:00;3.85;;;0.90;;
70247;SDS011;57641;51.416;5.506;2023-04-24T11:24:32;1.30;;;0.80;;
70247;SDS011;57641;51.416;5.506;2023-04-24T11:29:39;3.08;;;1.08;;
70247;SDS011;57641;51.416;5.506;2023-04-24T11:32:15;3.72;;;1.00;;
70247;SDS011;57641;51.416;5.506;2023-04-24T11:34:50;2.20;;;1.10;;
70247;SDS011;57641;51.416;5.506;2023-04-24T11:37:17;3.33;;;1.25;;
70247;SDS011;57641;51.416;5.506;2023-04-24T11:39:43;5.22;;;1.40;;
70247;SDS011;57641;51.416;5.506;2023-04-24T11:42:09;2.75;;;0.73;;
70247;SDS011;57641;51.416;5.506;2023-04-24T11:44:35;4.47;;;1.10;;
70247;SDS011;57641;51.416;5.506;2023-04-24T11:47:04;1.70;;;1.10;;
70247;SDS011;57641;51.416;5.506;2023-04-24T11:49:31;4.18;;;0.90;;
70247;SDS011;57641;51.416;5.506;2023-04-24T11:51:56;2.50;;;0.90;;
70247;SDS011;57641;51.416;5.506;2023-04-24T11:54:21;1.98;;;0.82;;
70247;SDS011;57641;51.416;5.506;2023-04-24T11:56:47;2.85;;;0.88;;
70247;SDS011;57641;51.416;5.506;2023-04-24T11:59:14;3.03;;;1.23;;
70247;SDS011;57641;51.416;5.506;2023-04-24T12:01:43;3.42;;;0.80;;
70247;SDS011;57641;51.416;5.506;2023-04-24T12:04:13;1.85;;;0.82;;
70247;SDS011;57641;51.416;5.506;2023-04-24T12:06:39;3.85;;;0.90;;
70247;SDS011;57641;51.416;5.506;2023-04-24T12:09:04;3.22;;;1.27;;
70247;SDS011;57641;51.416;5.506;2023-04-24T12:11:30;2.72;;;0.80;;
70247;SDS011;57641;51.416;5.506;2023-04-24T12:13:55;2.88;;;0.88;;
70247;SDS011;57641;51.416;5.506;2023-04-24T12:16:21;4.45;;;1.13;;
70247;SDS011;57641;51.416;5.506;2023-04-24T12:18:48;2.05;;;0.90;;
70247;SDS011;57641;51.416;5.506;2023-04-24T12:21:20;3.15;;;0.63;;
70247;SDS011;57641;51.416;5.506;2023-04-24T12:23:47;1.30;;;0.50;;
70247;SDS011;57641;51.416;5.506;2023-04-24T12:26:20;1.30;;;0.80;;
70247;SDS011;57641;51.416;5.506;2023-04-24T12:28:48;1.42;;;0.68;;
70247;SDS011;57641;51.416;5.506;2023-04-24T12:31:17;2.90;;;0.70;;
70247;SDS011;57641;51.416;5.506;2023-04-24T12:33:45;3.45;;;0.77;;
70247;SDS011;57641;51.416;5.506;2023-04-24T12:36:11;1.77;;;0.70;;
70247;SDS011;57641;51.416;5.506;2023-04-24T12:38:37;1.83;;;0.80;;
70247;SDS011;57641;51.416;5.506;2023-04-24T12:41:07;2.28;;;0.70;;
70247;SDS011;57641;51.416;5.506;2023-04-24T12:43:34;6.45;;;1.00;;
70247;SDS011;57641;51.416;5.506;2023-04-24T12:46:00;2.42;;;1.10;;
70247;SDS011;57641;51.416;5.506;2023-04-24T12:48:26;1.92;;;0.70;;
70247;SDS011;57641;51.416;5.506;2023-04-24T12:50:52;1.80;;;0.70;;
70247;SDS011;57641;51.416;5.506;2023-04-24T12:53:18;3.60;;;0.70;;
70247;SDS011;57641;51.416;5.506;2023-04-24T12:55:44;3.08;;;0.82;;
70247;SDS011;57641;51.416;5.506;2023-04-24T12:58:10;3.33;;;1.00;;
70247;SDS011;57641;51.416;5.506;2023-04-24T13:00:36;1.98;;;0.70;;
70247;SDS011;57641;51.416;5.506;2023-04-24T13:03:02;1.95;;;0.80;;
70247;SDS011;57641;51.416;5.506;2023-04-24T13:05:28;1.23;;;0.70;;
70247;SDS011;57641;51.416;5.506;2023-04-24T13:07:53;4.35;;;1.08;;
70247;SDS011;57641;51.416;5.506;2023-04-24T13:10:19;2.75;;;1.02;;
70247;SDS011;57641;51.416;5.506;2023-04-24T13:12:45;1.50;;;0.93;;
70247;SDS011;57641;51.416;5.506;2023-04-24T13:15:11;1.90;;;0.85;;
70247;SDS011;57641;51.416;5.506;2023-04-24T13:17:37;1.75;;;0.80;;
70247;SDS011;57641;51.416;5.506;2023-04-24T13:20:03;4.78;;;1.00;;
70247;SDS011;57641;51.416;5.506;2023-04-24T13:22:30;2.80;;;1.23;;
70247;SDS011;57641;51.416;5.506;2023-04-24T13:24:55;3.28;;;1.00;;
70247;SDS011;57641;51.416;5.506;2023-04-24T13:27:21;3.58;;;1.38;;
70247;SDS011;57641;51.416;5.506;2023-04-24T13:29:46;5.03;;;1.40;;
70247;SDS011;57641;51.416;5.506;2023-04-24T13:32:12;2.47;;;1.40;;
70247;SDS011;57641;51.416;5.506;2023-04-24T13:34:38;4.40;;;1.38;;
70247;SDS011;57641;51.416;5.506;2023-04-24T13:37:04;1.80;;;1.35;;
70247;SDS011;57641;51.416;5.506;2023-04-24T13:39:30;4.75;;;1.63;;
70247;SDS011;57641;51.416;5.506;2023-04-24T13:41:55;4.53;;;1.23;;
70247;SDS011;57641;51.416;5.506;2023-04-24T13:44:22;4.35;;;1.40;;
70247;SDS011;57641;51.416;5.506;2023-04-24T13:46:49;2.25;;;1.10;;
70247;SDS011;57641;51.416;5.506;2023-04-24T13:49:22;3.80;;;1.50;;
70247;SDS011;57641;51.416;5.506;2023-04-24T13:51:50;3.17;;;1.08;;
70247;SDS011;57641;51.416;5.506;2023-04-24T13:54:16;4.72;;;1.40;;
70247;SDS011;57641;51.416;5.506;2023-04-24T13:56:42;3.58;;;1.30;;
70247;SDS011;57641;51.416;5.506;2023-04-24T13:59:08;3.78;;;1.50;;
70247;SDS011;57641;51.416;5.506;2023-04-24T14:01:34;4.60;;;1.42;;
70247;SDS011;57641;51.416;5.506;2023-04-24T14:04:00;5.45;;;1.35;;
70247;SDS011;57641;51.416;5.506;2023-04-24T14:06:25;1.80;;;1.35;;
70247;SDS011;57641;51.416;5.506;2023-04-24T14:08:51;3.47;;;1.27;;
70247;SDS011;57641;51.416;5.506;2023-04-24T14:11:17;3.78;;;1.40;;
70247;SDS011;57641;51.416;5.506;2023-04-24T14:13:44;6.30;;;1.52;;
70247;SDS011;57641;51.416;5.506;2023-04-24T14:16:10;3.10;;;1.42;;
70247;SDS011;57641;51.416;5.506;2023-04-24T14:18:36;3.67;;;1.70;;
70247;SDS011;57641;51.416;5.506;2023-04-24T14:21:05;3.60;;;1.77;;
70247;SDS011;57641;51.416;5.506;2023-04-24T14:23:31;3.95;;;1.55;;
70247;SDS011;57641;51.416;5.506;2023-04-24T14:25:57;5.82;;;1.50;;
70247;SDS011;57641;51.416;5.506;2023-04-24T14:28:23;2.72;;;1.42;;
70247;SDS011;57641;51.416;5.506;2023-04-24T14:30:49;3.00;;;1.45;;
70247;SDS011;57641;51.416;5.506;2023-04-24T14:33:15;5.65;;;1.80;;
70247;SDS011;57641;51.416;5.506;2023-04-24T14:35:41;4.68;;;2.03;;
70247;SDS011;57641;51.416;5.506;2023-04-24T14:38:08;4.13;;;1.45;;
70247;SDS011;57641;51.416;5.506;2023-04-24T14:40:34;5.65;;;1.50;;
70247;SDS011;57641;51.416;5.506;2023-04-24T14:43:00;6.97;;;1.70;;
70247;SDS011;57641;51.416;5.506;2023-04-24T14:45:26;5.45;;;1.52;;
70247;SDS011;57641;51.416;5.506;2023-04-24T14:47:52;6.35;;;1.67;;
70247;SDS011;57641;51.416;5.506;2023-04-24T14:50:18;4.43;;;1.58;;
70247;SDS011;57641;51.416;5.506;2023-04-24T14:52:44;6.47;;;1.40;;